createdAt,value
2023-03-18T00:03:49.712Z,95400.88
2023-03-18T00:08:51.298Z,95404.03
2023-03-18T00:13:52.753Z,95415.88
2023-03-18T00:18:54.205Z,95418.41
2023-03-18T00:23:57.048Z,95424.81
2023-03-18T00:28:58.819Z,95425.53
2023-03-18T00:34:00.546Z,95427.50
2023-03-18T00:39:02.320Z,95426.81
2023-03-18T00:44:04.451Z,95433.34
2023-03-18T00:49:08.040Z,95430.28
2023-03-18T00:54:12.736Z,95438.34
2023-03-18T00:59:14.308Z,95443.88
2023-03-18T01:04:16.111Z,95437.81
2023-03-18T01:09:17.618Z,95443.47
2023-03-18T01:14:19.447Z,95435.84
2023-03-18T01:19:21.032Z,95434.25
2023-03-18T01:24:23.968Z,95435.66
2023-03-18T01:29:25.704Z,95430.91
2023-03-18T01:34:27.202Z,95425.94
2023-03-18T01:39:28.744Z,95421.94
2023-03-18T01:44:30.523Z,95423.19
2023-03-18T01:49:41.067Z,95422.50
2023-03-18T01:55:02.299Z,95426.66
2023-03-18T02:00:05.941Z,95419.00
2023-03-18T02:05:20.009Z,95428.84
2023-03-18T02:10:24.970Z,95416.75
2023-03-18T02:15:30.091Z,95419.44
2023-03-18T02:20:57.702Z,95417.94
2023-03-18T02:26:08.031Z,95419.63
2023-03-18T02:31:14.116Z,95420.47
2023-03-18T02:36:24.815Z,95434.44
2023-03-18T02:41:31.144Z,95427.50
2023-03-18T02:46:41.330Z,95426.97
2023-03-18T02:51:45.057Z,95423.38
2023-03-18T02:56:46.639Z,95416.03
2023-03-18T03:01:50.983Z,95417.84
2023-03-18T03:06:57.154Z,95419.38
2023-03-18T03:12:10.794Z,95419.66
2023-03-18T03:17:18.496Z,95433.81
2023-03-18T03:22:20.118Z,95427.97
2023-03-18T03:27:22.707Z,95431.59
2023-03-18T03:32:25.388Z,95439.75
2023-03-18T03:37:26.993Z,95435.06
2023-03-18T03:42:28.855Z,95442.13
2023-03-18T03:47:30.312Z,95444.34
2023-03-18T03:52:32.470Z,95443.53
2023-03-18T03:57:34.783Z,95445.06
2023-03-18T04:02:36.302Z,95438.78
2023-03-18T04:07:38.745Z,95444.59
2023-03-18T04:12:40.797Z,95439.31
2023-03-18T04:17:42.579Z,95453.50
2023-03-18T04:22:45.766Z,95455.56
2023-03-18T04:27:48.051Z,95446.41
2023-03-18T04:32:52.050Z,95448.06
2023-03-18T04:37:53.807Z,95446.00
2023-03-18T04:42:57.071Z,95445.44
2023-03-18T04:48:01.179Z,95449.31
2023-03-18T04:53:06.402Z,95450.00
2023-03-18T04:58:08.364Z,95459.63
2023-03-18T05:03:15.075Z,95456.75
2023-03-18T05:08:16.830Z,95451.00
2023-03-18T05:13:19.509Z,95444.72
2023-03-18T05:18:22.063Z,95446.34
2023-03-18T05:23:26.728Z,95444.69
2023-03-18T05:28:30.587Z,95444.09
2023-03-18T05:33:58.942Z,95441.69
2023-03-18T05:39:03.200Z,95444.00
2023-03-18T05:44:05.383Z,95441.66
2023-03-18T05:49:10.897Z,95447.38
2023-03-18T05:54:22.515Z,95447.53
2023-03-18T05:59:24.228Z,95446.00
2023-03-18T06:04:30.950Z,95447.91
2023-03-18T06:09:32.801Z,95452.28
2023-03-18T06:14:34.370Z,95442.28
2023-03-18T06:19:38.104Z,95440.13
2023-03-18T06:24:39.618Z,95441.88
2023-03-18T06:29:41.199Z,95445.66
2023-03-18T06:34:47.584Z,95453.00
2023-03-18T06:39:49.317Z,95456.22
2023-03-18T06:44:51.834Z,95454.19
2023-03-18T06:49:59.338Z,95463.34
2023-03-18T06:55:09.200Z,95450.94
2023-03-18T07:00:14.312Z,95455.97
2023-03-18T07:05:16.632Z,95460.72
2023-03-18T07:10:24.761Z,95461.97
2023-03-18T07:15:30.551Z,95468.19
2023-03-18T07:20:33.532Z,95456.84
2023-03-18T07:25:35.422Z,95471.41
2023-03-18T07:30:37.065Z,95473.19
2023-03-18T07:35:38.647Z,95471.09
2023-03-18T07:40:40.196Z,95475.06
2023-03-18T07:45:41.642Z,95476.38
2023-03-18T07:50:44.172Z,95471.22
2023-03-18T07:55:45.676Z,95474.50
2023-03-18T08:00:47.358Z,95471.34
2023-03-18T08:05:48.859Z,95472.84
2023-03-18T08:10:50.877Z,95490.47
2023-03-18T08:15:53.063Z,95479.88
2023-03-18T08:20:54.544Z,95480.91
2023-03-18T08:25:56.090Z,95480.16
2023-03-18T08:30:58.326Z,95473.13
2023-03-18T08:35:59.839Z,95475.06
2023-03-18T08:41:01.665Z,95472.78
2023-03-18T08:46:03.175Z,95469.06
2023-03-18T08:51:05.968Z,95456.44
2023-03-18T08:56:07.940Z,95449.50
2023-03-18T09:01:11.841Z,95452.16
2023-03-18T09:06:13.677Z,95452.31
2023-03-18T09:11:15.169Z,95442.06
2023-03-18T09:16:16.772Z,95435.25
2023-03-18T09:21:18.347Z,95428.31
2023-03-18T09:26:20.693Z,95429.09
2023-03-18T09:31:22.241Z,95418.72
2023-03-18T09:36:23.783Z,95413.22
2023-03-18T09:42:13.942Z,95412.34
2023-03-18T09:47:26.069Z,95405.22
2023-03-18T09:52:35.316Z,95407.16
2023-03-18T09:57:38.641Z,95410.88
2023-03-18T10:02:51.272Z,95402.38
2023-03-18T10:07:56.974Z,95399.44
2023-03-18T10:13:12.538Z,95399.78
2023-03-18T10:18:24.968Z,95392.50
2023-03-18T10:23:26.402Z,95396.66
2023-03-18T10:28:42.068Z,95396.84
2023-03-18T10:33:50.327Z,95403.44
2023-03-18T10:38:54.749Z,95391.63
2023-03-18T10:43:57.494Z,95388.72
2023-03-18T10:49:10.109Z,95384.66
2023-03-18T10:54:29.595Z,95380.38
2023-03-18T10:59:31.105Z,95380.28
2023-03-18T11:04:41.139Z,95380.28
2023-03-18T11:09:42.662Z,95379.66
2023-03-18T11:14:48.814Z,95364.16
2023-03-18T11:20:03.293Z,95367.91
2023-03-18T11:25:14.356Z,95355.06
2023-03-18T11:30:38.038Z,95350.44
2023-03-18T11:35:44.910Z,95344.94
2023-03-18T11:40:47.150Z,95349.94
2023-03-18T11:45:57.073Z,95337.25
2023-03-18T11:51:20.499Z,95340.19
2023-03-18T11:56:42.475Z,95330.59
2023-03-18T12:02:17.955Z,95312.88
2023-03-18T12:08:02.880Z,95304.03
2023-03-18T12:13:21.758Z,95305.63
2023-03-18T12:18:33.567Z,95293.38
2023-03-18T12:24:03.829Z,95293.75
2023-03-18T12:29:30.327Z,95283.91
2023-03-18T12:34:43.669Z,95280.38
2023-03-18T12:39:54.064Z,95274.03
2023-03-18T12:45:03.748Z,95274.59
2023-03-18T12:50:14.369Z,95278.94
2023-03-18T12:55:21.705Z,95270.69
2023-03-18T13:00:30.778Z,95265.34
2023-03-18T13:05:40.042Z,95269.22
2023-03-18T13:10:45.316Z,95272.34
2023-03-18T13:15:51.022Z,95271.28
2023-03-18T13:20:56.089Z,95271.91
2023-03-18T13:26:29.517Z,95272.72
2023-03-18T13:31:53.261Z,95265.31
2023-03-18T13:37:10.264Z,95269.22
2023-03-18T13:42:20.458Z,95263.03
2023-03-18T13:47:23.585Z,95255.81
2023-03-18T13:52:41.871Z,95254.19
2023-03-18T13:57:54.026Z,95250.84
2023-03-18T14:03:17.876Z,95240.13
2023-03-18T14:08:37.856Z,95236.22
2023-03-18T14:13:39.445Z,95227.28
2023-03-18T14:18:41.080Z,95221.84
2023-03-18T14:23:44.138Z,95229.88
2023-03-18T14:29:08.250Z,95217.31
2023-03-18T14:34:15.637Z,95218.81
2023-03-18T14:39:38.877Z,95216.34
2023-03-18T14:44:54.934Z,95209.38
2023-03-18T14:50:03.817Z,95200.09
2023-03-18T14:55:15.016Z,95199.03
2023-03-18T15:00:18.799Z,95185.66
2023-03-18T15:05:20.508Z,95185.28
2023-03-18T15:10:25.137Z,95188.31
2023-03-18T15:15:27.009Z,95183.53
2023-03-18T15:20:29.609Z,95185.63
2023-03-18T15:25:31.384Z,95194.25
2023-03-18T15:30:34.001Z,95198.00
2023-03-18T15:35:37.774Z,95186.16
2023-03-18T15:40:48.230Z,95189.63
2023-03-18T15:45:55.906Z,95180.41
2023-03-18T15:51:00.984Z,95185.00
2023-03-18T15:56:43.513Z,95189.72
2023-03-18T16:01:45.523Z,95190.69
2023-03-18T16:06:47.178Z,95193.38
2023-03-18T16:12:17.120Z,95201.50
2023-03-18T16:17:21.840Z,95194.34
2023-03-18T16:22:23.703Z,95194.31
2023-03-18T16:27:38.896Z,95207.03
2023-03-18T16:32:40.353Z,95214.34
2023-03-18T16:37:43.576Z,95214.63
2023-03-18T16:42:45.704Z,95214.31
2023-03-18T16:47:49.797Z,95217.09
2023-03-18T16:52:51.334Z,95223.63
2023-03-18T16:57:55.389Z,95218.28
2023-03-18T17:02:57.507Z,95227.00
2023-03-18T17:07:58.991Z,95245.22
2023-03-18T17:13:04.269Z,95244.34
2023-03-18T17:18:07.333Z,95246.84
2023-03-18T17:23:15.215Z,95250.81
2023-03-18T17:28:40.489Z,95229.75
2023-03-18T17:33:42.792Z,95243.34
2023-03-18T17:38:44.317Z,95248.69
2023-03-18T17:43:46.256Z,95247.09
2023-03-18T17:48:47.780Z,95245.97
2023-03-18T17:53:53.481Z,95252.56
2023-03-18T17:58:55.013Z,95253.75
2023-03-18T18:03:58.984Z,95265.00
2023-03-18T18:09:00.914Z,95265.34
2023-03-18T18:14:24.466Z,95283.16
2023-03-18T18:19:26.095Z,95291.84
2023-03-18T18:24:31.567Z,95290.69
2023-03-18T18:29:35.021Z,95299.16
2023-03-18T18:34:36.687Z,95310.16
2023-03-18T18:39:38.179Z,95307.84
2023-03-18T18:44:39.653Z,95308.50
2023-03-18T18:49:41.174Z,95314.59
2023-03-18T18:54:42.671Z,95315.28
2023-03-18T18:59:44.182Z,95315.50
2023-03-18T19:04:45.633Z,95315.56
2023-03-18T19:09:47.108Z,95320.81
2023-03-18T19:14:48.597Z,95325.38
2023-03-18T19:19:51.879Z,95337.69
2023-03-18T19:24:53.651Z,95347.34
2023-03-18T19:30:00.548Z,95343.00
2023-03-18T19:35:02.072Z,95347.59
2023-03-18T19:40:15.463Z,95350.28
2023-03-18T19:45:17.002Z,95354.75
2023-03-18T19:50:21.072Z,95355.66
2023-03-18T19:55:22.784Z,95360.84
2023-03-18T20:00:25.739Z,95370.81
2023-03-18T20:05:27.306Z,95369.31
2023-03-18T20:10:28.799Z,95381.78
2023-03-18T20:15:30.450Z,95372.84
2023-03-18T20:20:33.090Z,95385.59
2023-03-18T20:25:37.255Z,95384.16
2023-03-18T20:30:40.385Z,95389.31
2023-03-18T20:35:44.083Z,95400.41
2023-03-18T20:40:45.808Z,95396.25
2023-03-18T20:45:47.493Z,95402.22
2023-03-18T20:50:50.011Z,95406.06
2023-03-18T20:55:51.839Z,95400.41
2023-03-18T21:00:54.165Z,95398.75
2023-03-18T21:05:57.833Z,95404.34
2023-03-18T21:11:02.014Z,95406.72
2023-03-18T21:16:06.552Z,95409.22
2023-03-18T21:21:23.348Z,95411.22
2023-03-18T21:26:25.158Z,95413.41
2023-03-18T21:31:29.589Z,95414.38
2023-03-18T21:36:31.028Z,95420.31
2023-03-18T21:41:33.558Z,95422.31
2023-03-18T21:46:35.078Z,95425.50
2023-03-18T21:51:39.954Z,95423.81
2023-03-18T21:56:41.750Z,95429.31
2023-03-18T22:01:43.347Z,95426.81
2023-03-18T22:06:44.880Z,95433.44
2023-03-18T22:11:46.391Z,95428.47
2023-03-18T22:16:47.917Z,95433.78
2023-03-18T22:21:49.444Z,95427.97
2023-03-18T22:26:50.954Z,95431.13
2023-03-18T22:31:52.510Z,95430.28
2023-03-18T22:36:53.965Z,95435.25
2023-03-18T22:41:55.511Z,95439.88
2023-03-18T22:46:57.099Z,95435.09
2023-03-18T22:51:58.650Z,95437.56
2023-03-18T22:57:00.118Z,95443.00
2023-03-18T23:02:01.632Z,95448.66
2023-03-18T23:07:03.209Z,95454.66
2023-03-18T23:12:04.859Z,95452.59
2023-03-18T23:17:06.480Z,95456.72
2023-03-18T23:22:10.716Z,95459.91
2023-03-18T23:27:12.227Z,95461.56
2023-03-18T23:32:14.970Z,95458.03
2023-03-18T23:37:16.479Z,95468.25
2023-03-18T23:42:19.839Z,95463.44
2023-03-18T23:47:21.393Z,95470.19
2023-03-18T23:52:22.920Z,95469.97
2023-03-18T23:57:24.469Z,95480.91
